Time;durP1;ratioP1;P1;durP2;ratioP2;P2;SDS_P1;SDS_P2;PMS_P1;PMS_P2;Temp;Humidity;BMP_temperature;BMP_pressure;BME280_temperature;BME280_humidity;BME280_pressure;Samples;Min_cycle;Max_cycle;Signal;HPM_P1;HPM_P2
2021/06/07 04:51:33;;;;;;;49.03;28.33;;;18.00;99.90;;;;;;4216493;22;20017;-72
2021/06/07 04:53:59;;;;;;;47.22;27.20;;;18.10;99.90;;;;;;4915490;29;20044;-73
2021/06/07 04:56:24;;;;;;;48.40;29.10;;;18.10;99.90;;;;;;4933865;29;20050;-73
2021/06/07 04:58:50;;;;;;;44.65;28.17;;;18.20;99.90;;;;;;4933213;29;20485;-73
2021/06/07 05:01:18;;;;;;;45.55;27.05;;;18.20;99.90;;;;;;5005789;23;20121;-73
2021/06/07 05:03:44;;;;;;;45.00;28.30;;;18.20;99.90;;;;;;4976393;28;20105;-73
2021/06/07 05:06:10;;;;;;;42.70;26.80;;;18.20;99.90;;;;;;4993846;28;20113;-73
2021/06/07 05:08:36;;;;;;;47.45;28.60;;;18.20;99.90;;;;;;4995289;28;20029;-73
2021/06/07 06:36:28;;;;;;;57.42;33.63;;;18.50;99.90;;;;;;5029825;28;20458;-73
2021/06/07 06:38:54;;;;;;;60.05;35.38;;;18.50;99.90;;;;;;5031059;28;20025;-73
2021/06/07 06:41:20;;;;;;;65.15;34.38;;;18.50;99.90;;;;;;5013880;28;20030;-74
2021/06/07 06:43:46;;;;;;;59.70;35.88;;;18.40;99.90;;;;;;5031696;28;20116;-74
2021/06/07 06:46:12;;;;;;;57.80;35.78;;;18.40;99.90;;;;;;5014172;28;20041;-74
2021/06/07 06:48:38;;;;;;;57.35;34.85;;;18.40;99.90;;;;;;5031821;28;20537;-74
2021/06/07 06:51:04;;;;;;;55.47;34.92;;;18.40;99.90;;;;;;5022529;28;20025;-74
2021/06/07 06:53:30;;;;;;;58.58;35.97;;;18.40;99.90;;;;;;4997710;28;20021;-74
2021/06/07 06:55:55;;;;;;;60.33;37.13;;;18.40;99.90;;;;;;5031877;28;20163;-74
2021/06/07 06:58:22;;;;;;;65.18;39.15;;;18.40;99.90;;;;;;5032180;28;20033;-74
2021/06/07 07:00:48;;;;;;;64.15;38.95;;;18.40;99.90;;;;;;5034669;28;20032;-75
2021/06/07 07:03:17;;;;;;;69.85;39.63;;;18.40;99.90;;;;;;5017831;28;20120;-74
2021/06/07 07:05:44;;;;;;;61.22;37.92;;;18.40;99.90;;;;;;5035232;28;20079;-73
2021/06/07 07:08:10;;;;;;;66.32;40.63;;;18.50;99.90;;;;;;5035360;28;20431;-73
2021/06/07 07:10:40;;;;;;;59.83;37.55;;;18.40;99.90;;;;;;5034711;28;20101;-74
2021/06/07 07:13:06;;;;;;;;;;;18.50;99.90;;;;;;5035694;28;20439;-74
2021/06/07 07:15:32;;;;;;;62.78;40.25;;;18.50;99.90;;;;;;5035411;28;19913;-73
2021/06/07 07:17:57;;;;;;;64.63;40.13;;;18.50;99.90;;;;;;5035831;28;20067;-74
2021/06/07 07:56:38;;;;;;;58.03;38.08;;;19.70;99.90;;;;;;5033033;28;20054;-72
2021/06/07 08:04:14;;;;;;;51.53;36.05;;;20.00;99.90;;;;;;5426359;23;20492;-74
2021/06/07 08:06:42;;;;;;;50.17;35.47;;;20.00;99.90;;;;;;5013780;28;20033;-72
2021/06/07 08:09:08;;;;;;;57.22;38.83;;;20.10;99.90;;;;;;5010795;28;20093;-72
2021/06/07 08:11:33;;;;;;;54.15;37.83;;;20.10;99.90;;;;;;5004110;28;20121;-74
2021/06/07 08:13:59;;;;;;;57.40;39.30;;;20.00;99.90;;;;;;5013618;28;20057;-72
2021/06/07 08:16:25;;;;;;;57.13;39.33;;;20.00;99.90;;;;;;5027313;28;20415;-74
2021/06/07 08:18:50;;;;;;;57.92;41.13;;;20.00;99.90;;;;;;5016677;28;20034;-73
2021/06/07 08:21:16;;;;;;;62.05;42.53;;;20.00;99.90;;;;;;5015291;28;20034;-73
2021/06/07 08:23:42;;;;;;;59.80;41.63;;;20.00;99.90;;;;;;5029244;28;20451;-73
2021/06/07 08:26:07;;;;;;;62.50;40.42;;;20.10;99.90;;;;;;5008543;28;20030;-73
2021/06/07 08:28:33;;;;;;;59.22;39.25;;;20.10;99.90;;;;;;5013083;28;20048;-73
2021/06/07 08:30:59;;;;;;;55.50;38.80;;;20.10;99.90;;;;;;5013303;28;20018;-73
2021/06/07 08:33:24;;;;;;;57.47;40.05;;;20.30;99.90;;;;;;5014121;28;20489;-73
2021/06/07 08:35:50;;;;;;;58.78;39.97;;;20.40;99.90;;;;;;5014114;28;20064;-73
2021/06/07 08:38:17;;;;;;;58.17;39.45;;;20.40;99.90;;;;;;5014255;28;20079;-73
2021/06/07 08:40:43;;;;;;;58.50;38.80;;;20.50;99.90;;;;;;5012169;28;20026;-73
2021/06/07 08:43:09;;;;;;;60.33;38.78;;;20.60;99.90;;;;;;5012660;28;20032;-73
2021/06/07 08:45:35;;;;;;;56.30;39.47;;;20.60;99.90;;;;;;5014195;28;20393;-74
2021/06/07 08:48:01;;;;;;;54.72;38.65;;;20.60;99.90;;;;;;5014007;28;20026;-73
2021/06/07 08:50:30;;;;;;;51.75;38.67;;;20.60;99.90;;;;;;5369328;23;20053;-73
2021/06/07 08:52:56;;;;;;;64.45;41.70;;;20.70;99.90;;;;;;5013653;28;20049;-73
2021/06/07 08:55:26;;;;;;;51.65;35.35;;;20.80;99.90;;;;;;5013722;28;20034;-74
2021/06/07 08:57:56;;;;;;;105.93;62.38;;;20.80;99.90;;;;;;5013643;28;20026;-73
2021/06/07 09:00:28;;;;;;;58.50;39.17;;;21.00;99.90;;;;;;5011654;28;20116;-73
2021/06/07 09:03:01;;;;;;;55.70;36.83;;;21.00;99.90;;;;;;5013744;28;20029;-73
2021/06/07 09:05:27;;;;;;;53.97;36.80;;;21.00;99.90;;;;;;5013674;28;20100;-73
2021/06/07 09:08:09;;;;;;;55.05;36.60;;;21.00;99.90;;;;;;5014007;28;20072;-73
2021/06/07 09:10:38;;;;;;;50.78;37.92;;;20.80;99.90;;;;;;5012215;28;20117;-73
2021/06/07 09:13:06;;;;;;;49.92;36.38;;;20.80;99.90;;;;;;5013171;28;20026;-73
2021/06/07 09:15:38;;;;;;;55.13;38.30;;;20.90;99.90;;;;;;5012545;28;20496;-73
2021/06/07 09:18:07;;;;;;;57.13;39.05;;;21.20;99.90;;;;;;5013380;28;20030;-74
2021/06/07 09:20:34;;;;;;;58.78;41.25;;;21.40;99.90;;;;;;5011205;28;20025;-73
2021/06/07 09:23:05;;;;;;;59.33;40.45;;;21.60;99.90;;;;;;5012440;28;20029;-74
2021/06/07 09:25:35;;;;;;;49.97;36.70;;;21.70;99.90;;;;;;5011953;28;20121;-74
2021/06/07 09:28:14;;;;;;;67.22;43.20;;;21.80;99.90;;;;;;5013184;28;20018;-74
2021/06/07 09:30:51;;;;;;;55.28;37.58;;;21.80;99.80;;;;;;5011687;28;20429;-74
2021/06/07 09:33:18;;;;;;;54.35;36.20;;;21.90;99.90;;;;;;5013746;28;20026;-73
2021/06/07 09:35:46;;;;;;;56.67;36.10;;;21.90;99.90;;;;;;5013768;28;20041;-73
2021/06/07 09:38:12;;;;;;;49.28;34.28;;;22.00;99.90;;;;;;5013278;28;20086;-73
2021/06/07 09:40:37;;;;;;;50.35;34.97;;;22.20;99.90;;;;;;5012523;28;20382;-73
2021/06/07 09:43:04;;;;;;;48.60;33.95;;;22.10;99.90;;;;;;5012104;28;20029;-73
2021/06/07 09:45:39;;;;;;;47.03;34.38;;;22.30;99.90;;;;;;5011924;28;20030;-73
2021/06/07 09:48:12;;;;;;;46.80;33.35;;;22.40;99.40;;;;;;5013260;28;20014;-73
2021/06/07 09:50:58;;;;;;;45.00;32.75;;;22.40;99.20;;;;;;5011090;28;20071;-73
2021/06/07 09:53:51;;;;;;;48.25;34.55;;;22.40;99.90;;;;;;5013057;28;20030;-74
2021/06/07 09:56:18;;;;;;;46.85;34.17;;;22.30;99.90;;;;;;5011891;28;20060;-73
2021/06/07 09:58:46;;;;;;;49.35;35.90;;;22.30;99.80;;;;;;5012933;28;20022;-75
2021/06/07 10:01:17;;;;;;;46.78;34.13;;;22.50;99.90;;;;;;5013037;28;20026;-73
2021/06/07 10:03:49;;;;;;;50.30;34.03;;;22.50;99.20;;;;;;5012071;28;20468;-74
2021/06/07 10:06:18;;;;;;;44.78;33.08;;;22.60;99.40;;;;;;5013853;28;20026;-73
2021/06/07 10:08:49;;;;;;;47.20;34.80;;;22.70;99.20;;;;;;5013908;28;20026;-74
2021/06/07 10:11:30;;;;;;;46.40;33.63;;;22.80;99.80;;;;;;5013409;28;20026;-74
2021/06/07 10:14:20;;;;;;;44.22;31.83;;;23.00;98.80;;;;;;5012419;28;20045;-73
2021/06/07 10:16:57;;;;;;;45.10;32.15;;;23.00;98.00;;;;;;5011720;28;20069;-74
2021/06/07 10:30:30;;;;;;;36.95;28.23;;;23.60;96.90;;;;;;5009875;28;20041;-74
2021/06/07 10:33:53;;;;;;;39.58;28.88;;;23.90;95.40;;;;;;4912644;29;20047;-74
2021/06/07 10:36:29;;;;;;;36.53;26.70;;;24.30;95.00;;;;;;4913880;29;20055;-74
2021/06/07 10:39:22;;;;;;;34.30;26.20;;;24.50;94.10;;;;;;4913047;29;20035;-74
2021/06/07 10:42:08;;;;;;;34.00;27.38;;;24.70;94.90;;;;;;4913451;29;20056;-74
2021/06/07 10:44:35;;;;;;;36.97;27.80;;;24.90;95.50;;;;;;4900677;29;20032;-74
2021/06/07 10:47:06;;;;;;;37.80;27.55;;;25.00;94.80;;;;;;4913407;29;20061;-73
2021/06/07 10:49:41;;;;;;;34.58;28.08;;;24.80;94.80;;;;;;4912952;29;20032;-74
2021/06/07 10:52:19;;;;;;;39.78;29.65;;;24.60;95.00;;;;;;4913577;29;20526;-74
2021/06/07 10:55:26;;;;;;;34.50;26.45;;;24.30;95.40;;;;;;4913648;29;20048;-74
2021/06/07 10:58:00;;;;;;;37.13;27.20;;;23.80;95.40;;;;;;4839869;29;20037;-73
2021/06/07 11:00:37;;;;;;;37.80;27.73;;;23.70;96.00;;;;;;4825042;29;20033;-72
2021/06/07 11:03:16;;;;;;;39.15;29.38;;;23.70;95.90;;;;;;4840191;29;20027;-72
2021/06/07 11:05:42;;;;;;;35.20;27.60;;;23.70;95.30;;;;;;4843701;29;20701;-72
2021/06/07 11:08:18;;;;;;;35.53;26.65;;;23.80;96.50;;;;;;4933153;29;20026;-74
2021/06/07 11:11:07;;;;;;;34.75;26.27;;;24.00;95.10;;;;;;5011198;23;20067;-73
2021/06/07 11:13:51;;;;;;;38.13;28.40;;;24.10;95.50;;;;;;5004452;28;20054;-74
2021/06/07 11:16:33;;;;;;;32.75;25.70;;;24.40;95.70;;;;;;4993571;28;20029;-74
2021/06/07 11:18:59;;;;;;;36.28;25.33;;;24.60;93.60;;;;;;4992012;28;20034;-74
2021/06/07 11:21:26;;;;;;;33.33;25.60;;;24.80;94.00;;;;;;4977604;28;20081;-74
2021/06/07 11:23:51;;;;;;;35.25;25.52;;;25.00;92.90;;;;;;4978025;28;20490;-73
2021/06/07 11:26:35;;;;;;;30.17;23.70;;;25.20;92.20;;;;;;4986792;28;20081;-73
2021/06/07 11:29:00;;;;;;;36.58;23.73;;;25.20;93.20;;;;;;4991102;28;20023;-73
2021/06/07 11:31:35;;;;;;;28.63;22.90;;;25.30;94.50;;;;;;4991642;28;20028;-73
2021/06/07 11:34:05;;;;;;;30.75;23.15;;;25.40;93.00;;;;;;4991693;28;20505;-73
2021/06/07 11:36:59;;;;;;;30.63;23.50;;;25.60;93.30;;;;;;4991911;28;20041;-73
2021/06/07 11:39:45;;;;;;;29.17;22.95;;;25.80;93.20;;;;;;4990899;28;20132;-73
2021/06/07 11:42:16;;;;;;;28.08;22.30;;;25.80;92.80;;;;;;4990948;28;20039;-73
2021/06/07 11:45:05;;;;;;;30.05;23.35;;;25.90;91.90;;;;;;4991276;28;20397;-73
2021/06/07 11:47:36;;;;;;;28.67;22.25;;;25.70;92.70;;;;;;4995088;28;20030;-73
2021/06/07 11:50:04;;;;;;;32.67;23.73;;;25.70;92.70;;;;;;4994178;28;20493;-73
2021/06/07 11:52:33;;;;;;;30.48;24.05;;;25.60;91.90;;;;;;4993505;28;20033;-73
2021/06/07 11:55:00;;;;;;;31.48;22.50;;;25.60;91.30;;;;;;4995117;28;20030;-73
2021/06/07 11:57:26;;;;;;;29.42;23.45;;;25.60;92.90;;;;;;4994776;28;20440;-73
2021/06/07 11:59:57;;;;;;;32.25;25.70;;;25.70;90.80;;;;;;4983871;28;20117;-73
2021/06/07 12:02:24;;;;;;;30.63;23.80;;;25.50;91.70;;;;;;4995072;28;20022;-73
2021/06/07 12:04:50;;;;;;;29.75;23.42;;;25.30;91.50;;;;;;4994887;28;20026;-73
2021/06/07 12:07:17;;;;;;;27.45;22.92;;;25.30;91.60;;;;;;4994723;28;20081;-73
2021/06/07 12:09:53;;;;;;;29.65;23.02;;;25.60;91.20;;;;;;4994060;28;20033;-76
2021/06/07 12:12:20;;;;;;;28.60;21.90;;;25.90;92.90;;;;;;4989850;28;20485;-73
2021/06/07 12:14:47;;;;;;;26.75;20.95;;;26.30;91.60;;;;;;4975707;28;20050;-73
2021/06/07 12:17:18;;;;;;;25.75;21.35;;;26.30;91.00;;;;;;4975685;28;20030;-73
2021/06/07 12:20:00;;;;;;;26.50;21.80;;;26.40;91.20;;;;;;4957673;28;20023;-73
2021/06/07 12:22:36;;;;;;;26.25;21.48;;;26.40;90.80;;;;;;4991994;28;20531;-73
2021/06/07 12:30:25;;;;;;;24.38;19.98;;;26.40;90.00;;;;;;4987946;28;20463;-73
2021/06/07 12:32:53;;;;;;;24.60;20.30;;;26.80;89.90;;;;;;4975176;28;20111;-74
2021/06/07 12:35:22;;;;;;;29.90;22.05;;;26.90;90.10;;;;;;4976127;28;20031;-73
2021/06/07 12:38:02;;;;;;;26.48;22.27;;;26.50;89.40;;;;;;4976626;28;20038;-74
2021/06/07 12:40:35;;;;;;;26.13;21.63;;;26.30;90.70;;;;;;4959067;28;20113;-74
2021/06/07 12:43:07;;;;;;;27.88;21.90;;;26.40;89.80;;;;;;4976357;28;20022;-73
2021/06/07 12:45:42;;;;;;;26.15;19.85;;;26.70;91.30;;;;;;4958913;28;20031;-74
2021/06/07 12:48:13;;;;;;;24.88;20.27;;;27.00;90.00;;;;;;4976437;28;20036;-74
2021/06/07 12:51:06;;;;;;;22.83;18.67;;;27.50;87.00;;;;;;4998060;23;20586;-74
2021/06/07 12:53:48;;;;;;;23.67;17.85;;;28.00;90.10;;;;;;4996105;28;20030;-74
2021/06/07 12:56:18;;;;;;;22.35;18.27;;;29.00;87.40;;;;;;5015018;28;20030;-74
2021/06/07 12:58:51;;;;;;;;;;;29.50;84.50;;;;;;4997870;28;20036;-74
2021/06/07 13:42:43;;;;;;;20.00;17.05;;;31.00;78.40;;;;;;523414;26;20324;-72
2021/06/07 13:45:10;;;;;;;23.63;14.52;;;31.70;72.70;;;;;;4995102;28;20041;-74
2021/06/07 13:47:38;;;;;;;17.63;14.32;;;32.40;74.60;;;;;;5014096;28;20060;-74
2021/06/07 15:18:46;;;;;;;15.57;11.57;;;31.90;66.90;;;;;;5020002;28;20393;-73
2021/06/07 15:21:40;;;;;;;15.45;11.55;;;34.10;64.90;;;;;;5125296;23;20114;-74
2021/06/07 15:24:06;;;;;;;13.38;10.73;;;36.00;59.80;;;;;;5035535;28;20041;-74
2021/06/07 15:26:31;;;;;;;15.52;11.57;;;37.80;60.40;;;;;;5035381;28;20555;-74
2021/06/07 15:28:57;;;;;;;14.05;12.57;;;38.60;58.90;;;;;;5034974;28;20111;-73
2021/06/07 15:31:23;;;;;;;13.23;11.35;;;38.30;56.10;;;;;;5017355;28;20069;-73
2021/06/07 15:33:48;;;;;;;13.32;11.88;;;37.10;58.20;;;;;;5035065;28;20152;-74
2021/06/07 15:36:14;;;;;;;15.73;10.75;;;36.60;58.20;;;;;;5034946;28;20030;-74
2021/06/07 15:38:41;;;;;;;14.68;11.07;;;37.70;57.20;;;;;;5017307;28;20029;-73
2021/06/07 15:41:14;;;;;;;15.05;11.50;;;36.30;56.00;;;;;;5016564;28;20024;-73
2021/06/07 15:43:43;;;;;;;12.93;11.00;;;35.30;54.60;;;;;;5034891;28;20096;-73
2021/06/07 15:46:11;;;;;;;15.40;11.85;;;33.90;57.80;;;;;;5033906;28;20036;-73
2021/06/07 15:48:38;;;;;;;14.23;11.00;;;33.90;57.90;;;;;;5035315;28;20029;-73
2021/06/07 15:51:05;;;;;;;14.90;12.23;;;33.60;61.50;;;;;;5034696;28;20083;-73
2021/06/07 15:53:31;;;;;;;14.45;11.30;;;35.70;58.20;;;;;;5034683;28;20036;-73
2021/06/07 15:55:59;;;;;;;14.30;12.63;;;37.20;58.30;;;;;;5034476;28;20383;-73
2021/06/07 15:58:28;;;;;;;13.10;10.43;;;37.40;57.30;;;;;;5034794;28;20104;-74
2021/06/07 16:01:02;;;;;;;13.40;10.23;;;39.50;54.80;;;;;;5033631;28;20071;-73
2021/06/07 16:03:30;;;;;;;16.52;11.40;;;40.60;55.10;;;;;;5016622;28;20579;-73
2021/06/07 16:05:56;;;;;;;13.77;10.63;;;41.70;50.10;;;;;;5016504;28;20033;-74
2021/06/07 16:08:22;;;;;;;11.38;9.60;;;41.90;50.00;;;;;;5034583;28;20032;-73
2021/06/07 19:17:05;;;;;;;19.23;16.02;;;22.00;92.00;;;;;;5024953;28;20050;-72
2021/06/07 19:19:30;;;;;;;19.02;16.25;;;21.90;92.40;;;;;;5015504;28;20488;-72
2021/06/07 19:21:56;;;;;;;20.35;15.60;;;21.80;92.80;;;;;;5016108;28;20097;-72
2021/06/07 19:24:22;;;;;;;21.60;16.05;;;21.60;93.20;;;;;;4997449;28;20022;-72
2021/06/07 19:26:48;;;;;;;20.23;14.98;;;21.50;93.60;;;;;;4998306;28;20105;-72
2021/06/07 19:29:13;;;;;;;20.70;15.43;;;21.40;93.90;;;;;;5015555;28;20030;-72
2021/06/07 19:31:40;;;;;;;20.83;15.05;;;21.30;94.30;;;;;;5015621;28;20026;-72
2021/06/07 19:34:05;;;;;;;25.70;17.35;;;21.20;94.70;;;;;;5016028;28;20018;-72
2021/06/07 19:36:31;;;;;;;24.38;17.30;;;21.00;95.30;;;;;;4995352;28;20037;-72
2021/06/07 19:38:57;;;;;;;22.05;16.25;;;20.80;95.80;;;;;;4994540;28;20076;-72
2021/06/07 19:41:25;;;;;;;21.50;17.92;;;20.70;96.20;;;;;;5003212;28;20112;-72
2021/06/07 19:43:50;;;;;;;22.27;17.23;;;20.60;96.50;;;;;;5023958;28;20018;-72
2021/06/07 19:46:16;;;;;;;23.10;18.80;;;20.60;96.70;;;;;;5025456;28;20022;-72
2021/06/07 19:48:42;;;;;;;23.80;19.10;;;20.50;97.00;;;;;;5000527;28;20507;-73
2021/06/07 19:51:08;;;;;;;26.05;18.75;;;20.40;97.30;;;;;;5025156;28;20037;-72
2021/06/07 19:53:33;;;;;;;23.02;18.27;;;20.30;97.70;;;;;;5027973;28;20045;-72
2021/06/07 19:56:01;;;;;;;24.55;17.88;;;20.10;97.90;;;;;;4994174;28;20037;-72
2021/06/07 19:58:31;;;;;;;25.65;19.83;;;20.20;98.00;;;;;;5014484;28;20068;-71
2021/06/07 20:00:58;;;;;;;24.70;18.52;;;20.00;98.30;;;;;;4996938;28;20030;-71
2021/06/07 20:03:26;;;;;;;25.48;19.42;;;20.00;98.50;;;;;;5014865;28;20050;-72
2021/06/07 20:05:55;;;;;;;25.95;19.92;;;19.80;98.90;;;;;;4996556;28;20112;-72
2021/06/07 20:08:22;;;;;;;26.20;20.40;;;19.60;99.20;;;;;;4997218;28;20064;-72
2021/06/07 20:10:48;;;;;;;26.15;21.15;;;19.60;99.40;;;;;;5014439;28;20033;-72
2021/06/07 20:13:13;;;;;;;27.65;22.23;;;19.50;99.80;;;;;;5014844;28;20081;-72
2021/06/07 20:15:40;;;;;;;27.85;22.10;;;19.30;99.90;;;;;;5014643;28;20033;-72
2021/06/07 20:18:07;;;;;;;26.73;21.67;;;19.20;99.90;;;;;;4997051;28;20049;-72
2021/06/07 20:20:33;;;;;;;28.80;22.42;;;19.20;99.90;;;;;;4996915;28;20018;-72
2021/06/07 20:22:59;;;;;;;33.67;23.48;;;19.10;99.90;;;;;;4996900;28;20026;-72
2021/06/07 20:25:25;;;;;;;28.42;22.13;;;18.90;99.90;;;;;;5014218;28;20037;-72
2021/06/07 20:27:50;;;;;;;28.75;22.40;;;18.80;99.90;;;;;;4996876;28;20018;-71
2021/06/07 20:30:17;;;;;;;28.67;22.60;;;18.80;99.90;;;;;;4996556;28;20070;-72
2021/06/07 20:32:43;;;;;;;28.10;23.00;;;18.80;99.90;;;;;;5014296;28;20512;-72
2021/06/07 20:35:10;;;;;;;28.13;22.75;;;18.60;99.90;;;;;;4996660;28;20108;-72
2021/06/07 20:37:36;;;;;;;27.08;21.70;;;18.70;99.90;;;;;;5014167;28;20474;-72
2021/06/07 20:40:03;;;;;;;28.65;23.83;;;18.70;99.90;;;;;;5013916;28;20392;-72
2021/06/07 20:42:28;;;;;;;26.05;21.70;;;18.70;99.90;;;;;;5014111;28;20022;-72
2021/06/07 20:44:56;;;;;;;30.80;22.40;;;18.60;99.90;;;;;;5014055;28;20045;-72
2021/06/07 20:47:23;;;;;;;28.65;23.17;;;18.60;99.90;;;;;;4996479;28;20080;-72
2021/06/07 20:49:49;;;;;;;30.27;23.35;;;18.60;99.90;;;;;;4995959;28;20034;-71
2021/06/07 20:52:14;;;;;;;30.77;22.98;;;18.50;99.90;;;;;;4996483;28;20056;-72
2021/06/07 20:54:40;;;;;;;30.13;23.83;;;18.40;99.90;;;;;;5007262;28;20399;-72
2021/06/07 20:57:06;;;;;;;29.83;24.00;;;18.40;99.90;;;;;;5013723;28;20049;-71
2021/06/07 20:59:32;;;;;;;32.03;22.90;;;18.30;99.90;;;;;;5005347;28;20634;-72
2021/06/07 21:01:57;;;;;;;29.88;23.63;;;18.20;99.90;;;;;;5013966;28;20077;-72
2021/06/07 21:04:23;;;;;;;32.08;22.92;;;18.20;99.90;;;;;;5013705;28;20029;-72
2021/06/07 21:06:49;;;;;;;29.23;23.20;;;18.20;99.90;;;;;;5012711;28;20506;-72
2021/06/07 21:09:14;;;;;;;28.25;22.52;;;18.10;99.90;;;;;;4995377;28;20022;-72
2021/06/07 21:11:40;;;;;;;31.70;22.95;;;18.10;99.90;;;;;;4996023;28;20026;-72
2021/06/07 21:14:06;;;;;;;29.70;22.75;;;18.10;99.90;;;;;;5013415;28;20061;-72
2021/06/07 21:16:31;;;;;;;31.42;24.10;;;18.10;99.90;;;;;;5004897;28;20029;-71
2021/06/07 21:18:57;;;;;;;31.10;23.65;;;18.00;99.90;;;;;;4994594;28;20057;-72
2021/06/07 21:21:22;;;;;;;29.60;22.83;;;18.00;99.90;;;;;;5013342;28;20026;-72
2021/06/07 21:23:48;;;;;;;28.17;22.70;;;18.00;99.90;;;;;;5013561;28;20040;-71
2021/06/07 21:26:13;;;;;;;25.80;21.63;;;17.90;99.90;;;;;;5013317;28;20464;-72
2021/06/07 21:28:39;;;;;;;27.77;21.70;;;17.80;99.90;;;;;;5011997;28;20014;-72
2021/06/07 21:31:05;;;;;;;25.73;21.50;;;17.80;99.90;;;;;;5011115;28;20034;-72
2021/06/07 21:33:31;;;;;;;28.58;22.40;;;17.80;99.90;;;;;;5013183;28;20026;-71
2021/06/07 21:35:56;;;;;;;27.77;22.95;;;17.80;99.90;;;;;;4995517;28;20284;-72
2021/06/07 21:38:23;;;;;;;30.00;22.38;;;17.60;99.90;;;;;;5013141;28;20053;-72
2021/06/07 21:40:49;;;;;;;28.63;22.77;;;17.60;99.90;;;;;;5012447;28;20032;-72
2021/06/07 21:43:14;;;;;;;29.13;22.95;;;17.60;99.90;;;;;;5012950;28;20528;-72
2021/06/07 21:45:40;;;;;;;31.23;23.67;;;17.50;99.90;;;;;;5012764;28;20389;-71
2021/06/07 21:48:06;;;;;;;29.75;23.23;;;17.50;99.90;;;;;;5013012;28;20539;-72
2021/06/07 21:50:32;;;;;;;31.60;24.38;;;17.40;99.90;;;;;;5004273;28;20634;-72
2021/06/07 21:52:57;;;;;;;28.20;23.13;;;17.30;99.90;;;;;;5012870;28;20037;-72
2021/06/07 21:55:23;;;;;;;30.65;23.63;;;17.30;99.90;;;;;;5013092;28;20018;-72
2021/06/07 21:57:48;;;;;;;33.53;23.88;;;17.30;99.90;;;;;;5012794;28;20022;-72
2021/06/07 22:00:15;;;;;;;36.38;26.27;;;17.20;99.90;;;;;;4994528;28;20030;-72
2021/06/07 22:02:41;;;;;;;34.30;25.10;;;17.10;99.90;;;;;;5011543;28;20026;-72
2021/06/07 22:05:08;;;;;;;33.90;23.75;;;17.00;99.90;;;;;;5012740;28;20022;-72
2021/06/07 22:07:35;;;;;;;30.33;23.95;;;16.90;99.90;;;;;;5012855;28;20030;-72
2021/06/07 22:10:03;;;;;;;33.90;25.85;;;16.80;99.90;;;;;;5011890;28;20026;-72
2021/06/07 22:12:28;;;;;;;32.78;23.35;;;16.90;99.90;;;;;;5012216;28;20026;-72
2021/06/07 22:14:54;;;;;;;35.78;24.55;;;16.80;99.90;;;;;;4994831;28;20077;-72
2021/06/07 22:17:20;;;;;;;31.63;24.40;;;16.90;99.90;;;;;;4995004;28;20034;-72
2021/06/07 22:19:45;;;;;;;32.55;24.88;;;16.80;99.90;;;;;;5012080;28;20080;-72
2021/06/07 22:22:11;;;;;;;30.38;23.45;;;16.80;99.90;;;;;;4994809;28;20025;-72
2021/06/07 22:24:37;;;;;;;32.92;24.50;;;16.80;99.90;;;;;;5012409;28;20026;-72
2021/06/07 22:27:03;;;;;;;30.40;23.90;;;16.80;99.90;;;;;;5012288;28;20030;-72
2021/06/07 22:29:29;;;;;;;32.35;24.30;;;16.90;99.90;;;;;;5011188;28;20076;-72
2021/06/07 22:31:55;;;;;;;30.00;23.27;;;16.80;99.90;;;;;;5012576;28;20023;-72
2021/06/07 22:34:21;;;;;;;35.78;23.90;;;16.80;99.90;;;;;;5012333;28;20097;-72
2021/06/07 22:36:46;;;;;;;32.25;24.42;;;16.80;99.90;;;;;;5012587;28;20596;-72
2021/06/07 22:39:12;;;;;;;35.40;24.55;;;16.70;99.90;;;;;;4994029;28;20392;-72
2021/06/07 22:41:38;;;;;;;31.02;24.33;;;16.70;99.90;;;;;;5012483;28;20022;-72
2021/06/07 22:44:04;;;;;;;35.10;25.20;;;16.70;99.90;;;;;;4994453;28;20481;-71
2021/06/07 22:46:30;;;;;;;33.90;25.08;;;16.60;99.90;;;;;;4994446;28;20034;-72
2021/06/07 22:48:55;;;;;;;33.88;25.83;;;16.60;99.90;;;;;;4993826;28;20140;-72
2021/06/07 22:51:21;;;;;;;32.17;24.88;;;16.50;99.90;;;;;;5012193;28;20058;-71
2021/06/07 22:53:47;;;;;;;32.63;24.50;;;16.40;99.90;;;;;;5012102;28;20411;-71
2021/06/07 22:56:13;;;;;;;37.45;26.52;;;16.50;99.90;;;;;;5010640;28;20029;-71
2021/06/07 22:58:38;;;;;;;36.97;28.05;;;16.50;99.90;;;;;;5011964;28;20032;-72
2021/06/07 23:01:04;;;;;;;35.28;26.10;;;16.50;99.90;;;;;;5011455;28;20095;-71
2021/06/07 23:03:30;;;;;;;35.33;24.90;;;16.40;99.90;;;;;;5012032;28;20148;-71
2021/06/07 23:05:56;;;;;;;36.67;27.27;;;16.30;99.90;;;;;;5011845;28;20476;-71
2021/06/07 23:08:22;;;;;;;36.35;26.00;;;16.30;99.90;;;;;;5012203;28;20105;-71
2021/06/07 23:10:47;;;;;;;36.53;27.23;;;16.30;99.90;;;;;;5010152;28;20084;-71
2021/06/07 23:13:13;;;;;;;35.92;26.60;;;16.30;99.90;;;;;;5011822;28;20026;-71
2021/06/07 23:15:39;;;;;;;35.50;27.20;;;16.20;99.90;;;;;;5011644;28;20373;-71
2021/06/07 23:18:04;;;;;;;35.05;27.02;;;16.20;99.90;;;;;;4994251;28;20370;-71
2021/06/07 23:20:31;;;;;;;35.75;27.77;;;16.20;99.90;;;;;;5011666;28;20061;-71
2021/06/07 23:22:57;;;;;;;40.03;28.63;;;16.10;99.90;;;;;;5011893;28;20530;-71
2021/06/07 23:25:23;;;;;;;38.55;27.80;;;16.00;99.90;;;;;;5011815;28;20030;-71
2021/06/07 23:27:49;;;;;;;40.05;28.35;;;16.00;99.90;;;;;;5011726;28;20022;-71
2021/06/07 23:30:15;;;;;;;38.25;28.08;;;15.90;99.90;;;;;;5011526;28;20389;-71
2021/06/07 23:32:41;;;;;;;38.05;29.35;;;15.90;99.90;;;;;;4994115;28;20537;-71
2021/06/07 23:35:07;;;;;;;37.03;28.45;;;16.00;99.90;;;;;;5011736;28;20034;-71
2021/06/07 23:37:32;;;;;;;41.78;29.60;;;16.00;99.90;;;;;;5010469;28;20117;-71
2021/06/07 23:39:58;;;;;;;37.25;28.63;;;16.10;99.90;;;;;;5011617;28;20440;-71
2021/06/07 23:42:23;;;;;;;41.35;29.35;;;16.10;99.90;;;;;;5015127;28;20040;-71
2021/06/07 23:44:49;;;;;;;41.88;28.00;;;16.00;99.90;;;;;;4997683;28;20393;-71
2021/06/07 23:47:15;;;;;;;41.15;28.42;;;16.00;99.90;;;;;;5015149;28;20066;-71
2021/06/07 23:49:40;;;;;;;42.95;29.35;;;16.00;99.90;;;;;;5014999;28;20022;-71
2021/06/07 23:52:06;;;;;;;38.83;28.15;;;16.00;99.90;;;;;;5015439;28;20053;-71
2021/06/07 23:54:36;;;;;;;37.67;27.42;;;16.00;99.90;;;;;;5015386;28;20421;-71
2021/06/07 23:57:05;;;;;;;35.33;26.40;;;15.90;99.90;;;;;;5013824;28;20029;-71
2021/06/07 23:59:31;;;;;;;35.50;25.70;;;15.90;99.90;;;;;;5014724;28;20126;-71
